createdAt,value
2018-03-27T00:02:07.206Z,35.47
2018-03-27T00:04:35.241Z,36.03
2018-03-27T00:07:02.285Z,36.33
2018-03-27T00:09:30.504Z,32.90
2018-03-27T00:11:57.616Z,38.57
2018-03-27T00:14:24.658Z,37.10
2018-03-27T00:16:51.708Z,36.13
2018-03-27T00:19:18.761Z,37.27
2018-03-27T00:21:45.804Z,35.50
2018-03-27T00:24:12.854Z,35.07
2018-03-27T00:26:45.841Z,33.63
2018-03-27T00:29:18.699Z,35.53
2018-03-27T00:31:51.611Z,32.23
2018-03-27T00:34:24.710Z,34.60
2018-03-27T00:36:58.816Z,34.00
2018-03-27T00:39:31.700Z,34.40
2018-03-27T00:42:13.598Z,34.73
2018-03-27T00:44:40.651Z,35.20
2018-03-27T00:47:08.416Z,38.33
2018-03-27T00:49:35.973Z,38.07
2018-03-27T00:52:03.838Z,40.60
2018-03-27T00:54:31.097Z,40.27
2018-03-27T00:56:59.172Z,41.83
2018-03-27T00:59:26.216Z,43.90
2018-03-27T01:01:53.269Z,43.33
2018-03-27T01:04:20.316Z,43.67
2018-03-27T01:06:52.000Z,44.00
2018-03-27T01:09:19.016Z,51.40
2018-03-27T01:11:46.070Z,45.63
2018-03-27T01:14:13.114Z,41.70
2018-03-27T01:16:40.162Z,40.33
2018-03-27T01:19:07.217Z,36.53
2018-03-27T01:21:34.770Z,44.77
2018-03-27T01:24:01.827Z,43.03
2018-03-27T01:26:28.869Z,43.07
2018-03-27T01:29:14.824Z,37.33
2018-03-27T01:32:00.017Z,40.67
2018-03-27T01:34:27.492Z,40.53
2018-03-27T01:36:57.308Z,38.80
2018-03-27T01:39:24.360Z,39.70
2018-03-27T01:41:51.402Z,37.97
2018-03-27T01:44:18.554Z,38.40
2018-03-27T01:46:45.602Z,37.53
2018-03-27T01:49:12.656Z,36.97
2018-03-27T01:51:39.698Z,37.53
2018-03-27T01:54:07.775Z,36.43
2018-03-27T01:56:34.823Z,39.43
2018-03-27T01:59:01.874Z,36.33
2018-03-27T02:01:28.920Z,38.30
2018-03-27T02:03:55.968Z,35.80
2018-03-27T02:06:23.021Z,36.57
2018-03-27T02:08:50.063Z,40.80
2018-03-27T02:11:22.855Z,38.57
2018-03-27T02:13:56.151Z,44.23
2018-03-27T02:16:29.025Z,39.93
2018-03-27T02:19:01.912Z,41.83
2018-03-27T02:21:28.550Z,46.90
2018-03-27T02:24:07.376Z,40.27
2018-03-27T02:26:34.425Z,36.10
2018-03-27T02:29:01.478Z,38.23
2018-03-27T02:31:28.531Z,38.03
2018-03-27T02:33:55.571Z,40.30
2018-03-27T02:36:23.027Z,38.60
2018-03-27T02:38:50.317Z,40.87
2018-03-27T02:41:18.560Z,45.13
2018-03-27T02:43:45.613Z,44.00
2018-03-27T02:46:12.655Z,39.80
2018-03-27T02:48:40.627Z,39.60
2018-03-27T02:51:08.084Z,41.57
2018-03-27T02:53:35.136Z,46.17
2018-03-27T02:56:02.388Z,47.23
2018-03-27T02:58:29.331Z,47.43
2018-03-27T03:00:57.301Z,47.30
2018-03-27T03:03:24.287Z,42.77
2018-03-27T03:05:51.309Z,45.27
2018-03-27T03:08:18.356Z,43.90
2018-03-27T03:10:45.393Z,48.77
2018-03-27T03:13:12.750Z,45.40
2018-03-27T03:15:39.802Z,44.47
2018-03-27T03:18:08.073Z,44.00
2018-03-27T03:20:35.134Z,46.30
2018-03-27T03:23:02.177Z,43.03
2018-03-27T03:25:29.219Z,49.17
2018-03-27T03:27:56.268Z,48.20
2018-03-27T03:30:23.325Z,41.73
2018-03-27T03:32:50.318Z,42.53
2018-03-27T03:35:17.975Z,46.20
2018-03-27T03:37:44.974Z,47.97
2018-03-27T03:40:13.155Z,49.87
2018-03-27T03:42:40.199Z,51.10
2018-03-27T03:45:07.246Z,45.97
2018-03-27T03:47:34.261Z,47.87
2018-03-27T03:50:01.241Z,47.70
2018-03-27T03:52:28.910Z,46.37
2018-03-27T03:54:55.953Z,48.17
2018-03-27T03:57:23.000Z,48.80
2018-03-27T03:59:50.055Z,48.73
2018-03-27T04:02:17.099Z,48.63
2018-03-27T04:04:44.971Z,47.37
2018-03-27T04:07:12.014Z,50.60
2018-03-27T04:09:39.062Z,48.83
2018-03-27T04:12:06.115Z,50.67
2018-03-27T04:14:33.108Z,48.03
2018-03-27T04:17:01.129Z,52.37
2018-03-27T04:19:28.183Z,54.37
2018-03-27T04:21:55.226Z,54.20
2018-03-27T04:24:22.276Z,52.37
2018-03-27T04:26:49.329Z,52.60
2018-03-27T04:29:16.577Z,56.47
2018-03-27T04:31:44.035Z,51.10
2018-03-27T04:34:10.980Z,54.33
2018-03-27T04:36:38.029Z,53.37
2018-03-27T04:39:05.084Z,59.10
2018-03-27T04:41:33.969Z,59.40
2018-03-27T04:44:01.019Z,53.37
2018-03-27T04:46:28.074Z,50.53
2018-03-27T04:48:56.149Z,47.47
2018-03-27T04:51:23.195Z,54.47
2018-03-27T04:53:51.370Z,57.53
2018-03-27T04:56:19.846Z,48.87
2018-03-27T04:58:46.901Z,48.30
2018-03-27T05:01:14.050Z,41.43
2018-03-27T05:03:42.322Z,40.27
2018-03-27T05:06:09.371Z,47.83
2018-03-27T05:08:36.428Z,45.23
2018-03-27T05:11:03.672Z,46.17
2018-03-27T05:13:32.768Z,46.47
2018-03-27T05:15:59.817Z,44.80
2018-03-27T05:18:26.872Z,51.20
2018-03-27T05:20:54.343Z,49.17
2018-03-27T05:23:22.806Z,52.43
2018-03-27T05:25:49.859Z,50.90
2018-03-27T05:28:18.265Z,54.40
2018-03-27T05:30:45.282Z,56.50
2018-03-27T05:33:12.638Z,57.13
2018-03-27T05:35:39.692Z,62.97
2018-03-27T05:38:06.734Z,66.07
2018-03-27T05:40:34.193Z,112.83
2018-03-27T05:43:01.243Z,61.10
2018-03-27T05:45:28.296Z,52.43
2018-03-27T05:47:56.262Z,53.40
2018-03-27T05:50:23.410Z,51.07
2018-03-27T05:52:50.977Z,61.00
2018-03-27T05:55:18.020Z,59.47
2018-03-27T05:57:45.070Z,58.27
2018-03-27T06:00:12.122Z,56.07
2018-03-27T06:02:40.501Z,58.83
2018-03-27T06:05:07.567Z,54.17
2018-03-27T06:07:34.594Z,55.70
2018-03-27T06:10:01.648Z,54.50
2018-03-27T06:12:28.691Z,54.43
2018-03-27T06:14:55.741Z,53.77
2018-03-27T06:17:23.453Z,51.20
2018-03-27T06:19:52.183Z,52.80
2018-03-27T06:22:19.246Z,51.87
2018-03-27T06:24:46.288Z,49.77
2018-03-27T06:27:13.337Z,55.00
2018-03-27T06:29:40.328Z,53.30
2018-03-27T06:32:07.333Z,56.23
2018-03-27T06:34:34.748Z,52.73
2018-03-27T06:37:01.735Z,56.77
2018-03-27T06:39:28.785Z,60.40
2018-03-27T06:41:55.775Z,58.37
2018-03-27T06:44:22.779Z,57.00
2018-03-27T06:46:50.033Z,59.90
2018-03-27T06:49:19.158Z,55.80
2018-03-27T06:51:51.476Z,51.27
2018-03-27T06:54:20.598Z,55.87
2018-03-27T06:56:47.654Z,55.23
2018-03-27T06:59:15.567Z,60.60
2018-03-27T07:01:42.569Z,53.10
2018-03-27T07:04:09.612Z,59.13
2018-03-27T07:06:36.660Z,51.23
2018-03-27T07:09:03.722Z,48.57
2018-03-27T07:11:30.758Z,50.23
2018-03-27T07:13:57.919Z,47.90
2018-03-27T07:16:25.207Z,47.30
2018-03-27T07:18:52.230Z,46.77
2018-03-27T07:21:19.311Z,44.90
2018-03-27T07:23:46.311Z,44.33
2018-03-27T07:26:13.355Z,45.57
2018-03-27T07:28:40.403Z,51.30
2018-03-27T07:31:07.458Z,42.97
2018-03-27T07:33:34.608Z,42.00
2018-03-27T07:36:01.652Z,42.53
2018-03-27T07:38:28.700Z,36.03
2018-03-27T07:40:55.755Z,44.30
2018-03-27T07:43:22.798Z,42.37
2018-03-27T07:45:49.849Z,40.80
2018-03-27T07:48:16.901Z,45.83
2018-03-27T07:50:43.947Z,39.97
2018-03-27T07:53:10.996Z,41.93
2018-03-27T07:55:38.252Z,42.67
2018-03-27T07:58:06.431Z,41.43
2018-03-27T08:00:33.467Z,44.00
2018-03-27T08:03:01.236Z,40.10
2018-03-27T08:05:29.155Z,39.03
2018-03-27T08:07:56.151Z,40.70
2018-03-27T08:10:23.198Z,41.03
2018-03-27T08:12:50.764Z,40.50
2018-03-27T08:15:18.114Z,40.90
2018-03-27T08:17:45.168Z,40.13
2018-03-27T08:20:12.256Z,45.47
2018-03-27T08:22:39.260Z,39.37
2018-03-27T08:25:06.206Z,39.97
2018-03-27T08:27:33.292Z,37.57
2018-03-27T08:30:00.715Z,37.90
2018-03-27T08:32:27.698Z,37.57
2018-03-27T08:34:54.707Z,36.43
2018-03-27T08:37:22.375Z,40.40
2018-03-27T08:39:49.834Z,41.33
2018-03-27T08:42:16.736Z,39.43
2018-03-27T08:44:43.863Z,38.80
2018-03-27T08:47:10.874Z,41.40
2018-03-27T08:49:37.920Z,38.13
2018-03-27T08:52:05.101Z,39.63
2018-03-27T08:54:32.064Z,35.47
2018-03-27T08:56:59.941Z,39.83
2018-03-27T08:59:26.933Z,39.00
2018-03-27T09:01:53.885Z,38.33
2018-03-27T09:04:20.927Z,42.67
2018-03-27T09:06:49.419Z,38.63
2018-03-27T09:09:16.405Z,40.67
2018-03-27T09:11:43.412Z,41.53
2018-03-27T09:14:10.967Z,38.57
2018-03-27T09:16:38.019Z,40.73
2018-03-27T09:19:05.062Z,39.33
2018-03-27T09:21:32.115Z,40.77
2018-03-27T09:23:59.164Z,43.77
2018-03-27T09:26:26.208Z,39.60
2018-03-27T09:28:53.256Z,40.67
2018-03-27T09:31:20.243Z,37.23
2018-03-27T09:33:47.251Z,37.50
2018-03-27T09:36:14.305Z,39.13
2018-03-27T09:38:41.349Z,40.10
2018-03-27T09:41:08.398Z,40.67
2018-03-27T09:43:35.652Z,41.40
2018-03-27T09:46:02.699Z,41.20
2018-03-27T09:48:29.755Z,38.43
2018-03-27T09:50:56.843Z,40.50
2018-03-27T09:53:24.362Z,38.37
2018-03-27T09:55:51.303Z,39.30
2018-03-27T09:58:18.356Z,36.00
2018-03-27T10:00:51.239Z,38.00
2018-03-27T10:03:18.899Z,37.10
2018-03-27T10:05:47.014Z,39.57
2018-03-27T10:08:14.025Z,36.43
2018-03-27T10:10:41.068Z,38.03
2018-03-27T10:13:09.249Z,37.63
2018-03-27T10:15:36.189Z,36.37
2018-03-27T10:18:03.245Z,37.10
2018-03-27T10:20:31.209Z,33.87
2018-03-27T10:22:58.256Z,36.80
2018-03-27T10:25:25.310Z,39.30
2018-03-27T10:27:53.481Z,39.20
2018-03-27T10:30:21.655Z,40.37
2018-03-27T10:32:48.705Z,35.57
2018-03-27T10:35:15.758Z,38.27
2018-03-27T10:37:43.217Z,39.90
2018-03-27T10:40:10.263Z,40.50
2018-03-27T10:42:37.313Z,34.83
2018-03-27T10:45:04.364Z,34.47
2018-03-27T10:47:31.715Z,34.10
2018-03-27T10:49:58.765Z,32.80
2018-03-27T10:52:25.817Z,37.60
2018-03-27T10:54:52.858Z,37.87
2018-03-27T10:57:19.906Z,31.17
2018-03-27T10:59:46.964Z,32.67
2018-03-27T11:02:15.232Z,11.87
2018-03-27T11:04:42.384Z,29.43
2018-03-27T11:07:09.432Z,25.27
2018-03-27T11:09:36.486Z,31.27
2018-03-27T11:12:03.531Z,33.47
2018-03-27T11:14:32.844Z,30.07
2018-03-27T11:17:01.122Z,25.00
2018-03-27T11:19:29.911Z,24.40
2018-03-27T11:21:59.026Z,32.23
2018-03-27T11:24:28.120Z,30.93
2018-03-27T11:26:56.925Z,28.83
2018-03-27T11:29:26.336Z,26.03
2018-03-27T11:31:55.985Z,28.80
2018-03-27T11:34:24.649Z,26.77
2018-03-27T11:36:55.603Z,29.03
2018-03-27T11:39:24.659Z,27.70
2018-03-27T11:41:56.870Z,15.77
2018-03-27T11:44:25.467Z,11.30
2018-03-27T11:46:54.285Z,24.00
2018-03-27T11:49:22.782Z,21.40
2018-03-27T11:51:51.197Z,25.93
2018-03-27T11:54:20.392Z,24.87
2018-03-27T11:56:50.695Z,29.23
2018-03-27T11:59:19.634Z,26.53
2018-03-27T12:01:47.887Z,25.70
2018-03-27T12:04:16.621Z,29.07
2018-03-27T12:06:45.156Z,23.43
2018-03-27T12:09:12.139Z,25.10
2018-03-27T12:11:39.596Z,27.10
2018-03-27T12:14:08.186Z,25.87
2018-03-27T12:16:35.231Z,9.33
2018-03-27T12:19:02.892Z,16.20
2018-03-27T12:21:29.946Z,17.40
2018-03-27T12:23:56.988Z,12.13
2018-03-27T12:26:23.987Z,21.57
2018-03-27T12:28:50.984Z,25.97
2018-03-27T12:31:18.955Z,28.93
2018-03-27T12:33:46.006Z,11.90
2018-03-27T12:36:15.457Z,23.20
2018-03-27T12:38:44.082Z,24.53
2018-03-27T12:41:12.799Z,23.13
2018-03-27T12:43:41.874Z,25.43
2018-03-27T12:46:11.388Z,27.60
2018-03-27T12:48:39.666Z,22.93
2018-03-27T12:51:06.711Z,21.17
2018-03-27T12:53:33.757Z,18.63
2018-03-27T12:56:00.810Z,27.33
2018-03-27T12:58:27.855Z,25.27
2018-03-27T13:01:00.523Z,25.73
2018-03-27T13:03:27.585Z,18.23
2018-03-27T13:05:55.758Z,23.43
2018-03-27T13:08:22.810Z,25.40
2018-03-27T13:10:49.907Z,24.23
2018-03-27T13:13:16.903Z,24.33
2018-03-27T13:15:43.954Z,27.40
2018-03-27T13:18:10.847Z,24.23
2018-03-27T13:20:37.851Z,23.83
2018-03-27T13:23:04.894Z,24.30
2018-03-27T13:25:31.943Z,26.77
2018-03-27T13:27:58.997Z,17.93
2018-03-27T13:30:26.962Z,15.57
2018-03-27T13:32:54.013Z,22.83
2018-03-27T13:35:21.071Z,26.27
2018-03-27T13:37:48.112Z,25.20
2018-03-27T13:40:15.156Z,24.27
2018-03-27T13:42:42.214Z,20.97
2018-03-27T13:45:09.911Z,23.80
2018-03-27T13:47:37.177Z,20.73
2018-03-27T13:50:04.169Z,28.47
2018-03-27T13:52:31.219Z,25.53
2018-03-27T13:54:58.676Z,23.00
2018-03-27T13:57:25.730Z,26.83
2018-03-27T13:59:52.614Z,25.73
2018-03-27T14:02:21.126Z,16.60
2018-03-27T14:04:49.515Z,24.10
2018-03-27T14:07:18.060Z,23.77
2018-03-27T14:09:46.702Z,25.77
2018-03-27T14:12:15.739Z,24.07
2018-03-27T14:14:44.627Z,25.00
2018-03-27T14:17:13.681Z,25.60
2018-03-27T14:19:42.503Z,19.13
2018-03-27T14:22:12.535Z,26.83
2018-03-27T14:24:41.856Z,25.13
2018-03-27T14:27:10.888Z,24.40
2018-03-27T14:29:39.986Z,25.87
2018-03-27T14:32:07.042Z,22.23
2018-03-27T14:34:34.084Z,21.30
2018-03-27T14:37:01.134Z,22.87
2018-03-27T14:39:28.185Z,25.13
2018-03-27T14:41:56.303Z,27.10
2018-03-27T14:44:23.301Z,28.33
2018-03-27T14:46:50.373Z,21.63
2018-03-27T14:49:17.502Z,21.93
2018-03-27T14:51:45.881Z,21.03
2018-03-27T14:54:12.936Z,17.57
2018-03-27T14:56:39.979Z,30.37
2018-03-27T14:59:06.974Z,20.53
2018-03-27T15:01:33.973Z,12.87
2018-03-27T15:04:02.251Z,14.10
2018-03-27T15:06:29.306Z,11.77
2018-03-27T15:08:56.348Z,8.90
2018-03-27T15:11:24.932Z,11.83
2018-03-27T15:13:51.993Z,7.57
2018-03-27T15:16:20.437Z,9.23
2018-03-27T15:18:52.260Z,5.97
2018-03-27T15:21:21.751Z,6.77
2018-03-27T15:23:50.712Z,8.03
2018-03-27T15:26:20.491Z,8.83
2018-03-27T15:28:47.489Z,8.70
2018-03-27T15:31:14.946Z,11.20
2018-03-27T15:33:45.235Z,15.00
2018-03-27T15:36:15.110Z,11.87
2018-03-27T15:38:44.074Z,15.67
2018-03-27T15:41:13.925Z,15.20
2018-03-27T15:43:44.993Z,13.37
2018-03-27T15:46:14.277Z,23.90
2018-03-27T15:48:44.211Z,20.17
2018-03-27T15:51:20.319Z,20.23
2018-03-27T15:53:49.622Z,20.93
2018-03-27T15:56:19.744Z,21.80
2018-03-27T15:58:50.960Z,18.97
2018-03-27T16:01:24.140Z,18.53
2018-03-27T16:03:53.287Z,19.60
2018-03-27T16:06:22.325Z,21.13
2018-03-27T16:08:49.324Z,20.53
2018-03-27T16:11:16.363Z,19.40
2018-03-27T16:13:43.408Z,18.07
2018-03-27T16:16:10.403Z,17.17
2018-03-27T16:18:37.402Z,11.20
2018-03-27T16:21:04.452Z,11.13
2018-03-27T16:23:31.962Z,15.17
2018-03-27T16:25:58.965Z,23.03
2018-03-27T16:28:27.240Z,21.13
2018-03-27T16:30:54.390Z,23.37
2018-03-27T16:33:21.437Z,25.30
2018-03-27T16:35:48.690Z,23.20
2018-03-27T16:38:24.072Z,27.40
2018-03-27T16:40:51.029Z,20.40
2018-03-27T16:43:19.956Z,18.87
2018-03-27T16:45:47.539Z,20.17
2018-03-27T16:48:14.579Z,23.17
2018-03-27T16:50:41.537Z,22.90
2018-03-27T16:53:09.350Z,21.80
2018-03-27T16:55:36.457Z,22.20
2018-03-27T16:58:03.473Z,20.90
2018-03-27T17:00:31.564Z,25.10
2018-03-27T17:02:59.131Z,24.60
2018-03-27T17:05:26.173Z,24.10
2018-03-27T17:07:53.222Z,28.37
2018-03-27T17:10:22.561Z,23.33
2018-03-27T17:12:50.698Z,21.97
2018-03-27T17:15:17.747Z,23.80
2018-03-27T17:17:45.107Z,17.90
2018-03-27T17:20:13.380Z,18.47
2018-03-27T17:22:40.428Z,20.83
2018-03-27T17:25:08.808Z,21.33
2018-03-27T17:27:35.862Z,20.77
2018-03-27T17:30:02.904Z,26.10
2018-03-27T17:32:29.953Z,27.30
2018-03-27T17:34:57.105Z,21.27
2018-03-27T17:37:24.360Z,23.40
2018-03-27T17:39:51.510Z,23.43
2018-03-27T17:42:18.556Z,25.40
2018-03-27T17:44:45.856Z,18.57
2018-03-27T17:47:13.082Z,19.17
2018-03-27T17:49:40.227Z,21.10
2018-03-27T17:52:07.370Z,23.53
2018-03-27T17:54:34.363Z,29.40
2018-03-27T17:57:04.274Z,33.07
2018-03-27T17:59:33.496Z,34.57
2018-03-27T18:05:02.383Z,24.47
2018-03-27T18:07:30.734Z,19.53
2018-03-27T18:09:57.871Z,24.23
2018-03-27T18:12:26.051Z,18.73
2018-03-27T18:14:53.099Z,20.33
2018-03-27T18:17:21.225Z,18.40
2018-03-27T18:19:48.216Z,19.83
2018-03-27T18:22:15.367Z,18.73
2018-03-27T18:24:42.419Z,19.83
2018-03-27T18:27:09.464Z,21.33
2018-03-27T18:29:37.743Z,21.03
2018-03-27T18:32:05.103Z,20.53
2018-03-27T18:34:34.517Z,19.97
2018-03-27T18:37:02.933Z,17.23
2018-03-27T18:39:30.242Z,19.60
2018-03-27T18:41:57.282Z,20.73
2018-03-27T18:44:24.333Z,19.33
2018-03-27T18:46:52.451Z,18.47
2018-03-27T18:49:19.458Z,18.43
2018-03-27T18:51:46.918Z,19.30
2018-03-27T18:54:14.166Z,17.40
2018-03-27T18:56:41.219Z,18.00
2018-03-27T18:59:09.492Z,17.40
2018-03-27T19:01:36.540Z,20.77
2018-03-27T19:04:03.593Z,18.63
2018-03-27T19:06:30.745Z,18.07
2018-03-27T19:08:57.837Z,20.17
2018-03-27T19:11:25.354Z,19.80
2018-03-27T19:13:53.831Z,21.57
2018-03-27T19:16:21.297Z,20.43
2018-03-27T19:18:48.349Z,19.57
2018-03-27T19:21:15.389Z,23.93
2018-03-27T19:23:42.438Z,21.13
2018-03-27T19:26:09.999Z,21.73
2018-03-27T19:28:37.044Z,21.47
2018-03-27T19:31:04.913Z,20.17
2018-03-27T19:33:31.964Z,18.77
2018-03-27T19:36:00.292Z,19.17
2018-03-27T19:38:27.286Z,20.47
2018-03-27T19:40:54.345Z,18.60
2018-03-27T19:43:21.410Z,19.43
2018-03-27T19:45:48.437Z,24.50
2018-03-27T19:48:15.483Z,21.17
2018-03-27T19:50:42.426Z,20.63
2018-03-27T19:53:09.684Z,23.90
2018-03-27T19:55:36.728Z,22.47
2018-03-27T19:58:03.881Z,23.53
2018-03-27T20:00:31.543Z,22.90
2018-03-27T20:02:58.595Z,25.47
2018-03-27T20:05:25.638Z,24.50
2018-03-27T20:07:52.789Z,28.67
2018-03-27T20:10:19.839Z,24.10
2018-03-27T20:12:47.911Z,24.63
2018-03-27T20:15:15.536Z,33.07
2018-03-27T20:17:42.519Z,36.43
2018-03-27T20:20:09.574Z,27.90
2018-03-27T20:22:36.725Z,30.37
2018-03-27T20:25:03.769Z,26.63
2018-03-27T20:27:30.919Z,25.23
2018-03-27T20:29:58.689Z,24.30
2018-03-27T20:32:25.732Z,25.67
2018-03-27T20:34:53.600Z,25.07
2018-03-27T20:37:21.876Z,23.77
2018-03-27T20:39:48.931Z,25.40
2018-03-27T20:42:16.389Z,25.50
2018-03-27T20:44:43.432Z,23.27
2018-03-27T20:47:10.470Z,26.50
2018-03-27T20:49:39.205Z,23.23
2018-03-27T20:52:06.200Z,24.37
2018-03-27T20:54:33.251Z,23.30
2018-03-27T20:57:00.812Z,21.97
2018-03-27T20:59:27.796Z,22.43
2018-03-27T21:01:54.802Z,23.23
2018-03-27T21:04:21.850Z,25.60
2018-03-27T21:06:48.903Z,25.23
2018-03-27T21:09:15.947Z,26.20
2018-03-27T21:11:42.995Z,24.73
2018-03-27T21:14:10.050Z,23.67
2018-03-27T21:16:38.218Z,26.37
2018-03-27T21:19:05.273Z,28.67
2018-03-27T21:21:32.315Z,26.00
2018-03-27T21:23:59.364Z,25.03
2018-03-27T21:26:26.418Z,25.27
2018-03-27T21:28:53.569Z,25.20
2018-03-27T21:31:20.614Z,24.23
2018-03-27T21:33:47.660Z,24.37
2018-03-27T21:36:15.529Z,24.00
2018-03-27T21:38:43.745Z,26.50
2018-03-27T21:41:10.755Z,25.53
2018-03-27T21:43:37.800Z,23.60
2018-03-27T21:46:04.855Z,26.17
2018-03-27T21:48:31.902Z,24.47
2018-03-27T21:50:58.946Z,27.27
2018-03-27T21:53:26.001Z,30.03
2018-03-27T21:55:53.043Z,31.13
2018-03-27T21:58:20.134Z,28.83
2018-03-27T22:00:47.038Z,28.13
2018-03-27T22:03:14.087Z,29.43
2018-03-27T22:05:41.388Z,29.50
2018-03-27T22:08:08.388Z,28.77
2018-03-27T22:10:35.286Z,30.23
2018-03-27T22:13:02.997Z,27.47
2018-03-27T22:15:31.224Z,27.23
2018-03-27T22:17:58.221Z,28.47
2018-03-27T22:20:25.275Z,29.03
2018-03-27T22:22:52.321Z,29.00
2018-03-27T22:25:19.366Z,28.70
2018-03-27T22:27:46.823Z,27.07
2018-03-27T22:30:13.878Z,29.40
2018-03-27T22:32:40.920Z,27.63
2018-03-27T22:35:08.687Z,28.87
2018-03-27T22:37:36.963Z,27.00
2018-03-27T22:40:03.910Z,28.30
2018-03-27T22:42:30.958Z,32.60
2018-03-27T22:44:58.012Z,27.27
2018-03-27T22:47:25.567Z,27.83
2018-03-27T22:49:52.622Z,28.33
2018-03-27T22:52:19.663Z,26.83
2018-03-27T22:54:46.651Z,25.17
2018-03-27T22:57:13.659Z,27.43
2018-03-27T22:59:40.709Z,25.97
2018-03-27T23:02:07.761Z,27.40
2018-03-27T23:04:34.804Z,26.40
2018-03-27T23:07:01.852Z,24.87
2018-03-27T23:09:28.799Z,27.70
2018-03-27T23:11:56.770Z,26.17
2018-03-27T23:14:24.436Z,28.23
2018-03-27T23:16:51.686Z,25.83
2018-03-27T23:19:19.355Z,26.13
2018-03-27T23:21:46.707Z,24.37
2018-03-27T23:24:13.753Z,26.97
2018-03-27T23:26:40.806Z,23.03
2018-03-27T23:29:07.849Z,25.67
2018-03-27T23:31:34.897Z,25.03
2018-03-27T23:34:01.951Z,25.70
2018-03-27T23:36:28.995Z,26.90
2018-03-27T23:38:56.047Z,23.43
2018-03-27T23:41:23.106Z,25.77
2018-03-27T23:43:50.147Z,24.67
2018-03-27T23:46:17.192Z,24.80
2018-03-27T23:48:44.139Z,25.10
2018-03-27T23:51:12.418Z,26.30
2018-03-27T23:53:39.468Z,25.20
2018-03-27T23:56:06.509Z,21.63
2018-03-27T23:58:33.772Z,27.17
